Time;durP1;ratioP1;P1;durP2;ratioP2;P2;SDS_P1;SDS_P2;PMS_P1;PMS_P2;Temp;Humidity;BMP_temperature;BMP_pressure;BME280_temperature;BME280_humidity;BME280_pressure;Samples;Min_cycle;Max_cycle;Signal;HPM_P1;HPM_P2
2021/06/02 00:02:31;;;;;;;10.32;4.20;;;;;;;;;;6196916;23;20155;-92
2021/06/02 00:05:35;;;;;;;8.25;3.95;;;;;;;;;;6195283;23;20211;-90
2021/06/02 00:08:40;;;;;;;6.38;4.00;;;;;;;;;;6196187;23;20175;-91
2021/06/02 00:11:46;;;;;;;8.13;4.78;;;;;;;;;;6194918;23;20172;-92
2021/06/02 00:14:50;;;;;;;8.30;4.15;;;;;;;;;;6194952;23;20211;-93
2021/06/02 00:17:55;;;;;;;7.07;4.28;;;;;;;;;;6195807;23;20191;-89
2021/06/02 00:20:59;;;;;;;9.90;4.35;;;;;;;;;;6195288;23;20266;-92
2021/06/02 00:24:04;;;;;;;7.17;4.20;;;;;;;;;;6194959;23;20172;-92
2021/06/02 00:27:11;;;;;;;10.43;4.43;;;;;;;;;;6195500;23;20718;-91
2021/06/02 00:30:18;;;;;;;11.48;4.75;;;;;;;;;;6196469;23;20203;-90
2021/06/02 00:33:23;;;;;;;8.40;4.80;;;;;;;;;;6194231;23;20506;-91
2021/06/02 00:36:29;;;;;;;10.60;4.90;;;;;;;;;;6195500;23;20168;-91
2021/06/02 00:39:33;;;;;;;12.95;5.22;;;;;;;;;;6196663;23;20168;-91
2021/06/02 00:42:39;;;;;;;9.88;4.63;;;;;;;;;;6196912;23;20175;-90
2021/06/02 00:45:44;;;;;;;8.75;4.80;;;;;;;;;;6195555;23;20180;-91
2021/06/02 00:48:49;;;;;;;8.57;4.50;;;;;;;;;;6196135;23;20738;-92
2021/06/02 00:51:55;;;;;;;8.53;4.03;;;;;;;;;;6195573;23;20199;-92
2021/06/02 00:55:00;;;;;;;9.13;4.50;;;;;;;;;;6179825;23;20171;-92
2021/06/02 00:58:08;;;;;;;6.93;4.25;;;;;;;;;;6196310;23;20287;-93
2021/06/02 01:01:15;;;;;;;9.20;4.60;;;;;;;;;;6195740;23;20667;-90
2021/06/02 01:04:24;;;;;;;12.23;4.73;;;;;;;;;;6195096;23;20167;-93
2021/06/02 01:07:29;;;;;;;11.30;4.83;;;;;;;;;;6195530;23;20267;-90
2021/06/02 01:10:34;;;;;;;11.40;5.10;;;;;;;;;;6180619;23;20164;-91
2021/06/02 01:13:43;;;;;;;15.50;5.47;;;;;;;;;;6197406;23;20164;-91
2021/06/02 01:16:47;;;;;;;9.17;4.30;;;;;;;;;;6197268;23;20169;-91
2021/06/02 01:19:57;;;;;;;9.70;3.80;;;;;;;;;;6201452;23;20227;-91
2021/06/02 01:23:03;;;;;;;14.02;4.47;;;;;;;;;;6184944;23;20160;-90
2021/06/02 01:26:07;;;;;;;8.37;4.50;;;;;;;;;;6197373;23;20163;-91
2021/06/02 01:29:12;;;;;;;9.43;4.60;;;;;;;;;;6179474;23;20187;-91
2021/06/02 01:32:24;;;;;;;8.32;4.50;;;;;;;;;;6196877;23;20183;-90
2021/06/02 01:35:50;;;;;;;8.90;4.10;;;;;;;;;;6198178;23;20209;-88
2021/06/02 01:39:03;;;;;;;11.20;4.40;;;;;;;;;;6198479;23;20152;-90
2021/06/02 01:42:41;;;;;;;8.40;4.25;;;;;;;;;;6196232;23;20176;-90
2021/06/02 01:45:53;;;;;;;9.73;3.77;;;;;;;;;;6062220;23;20239;-91
2021/06/02 01:49:01;;;;;;;6.80;3.60;;;;;;;;;;6059834;23;20214;-91
2021/06/02 01:52:19;;;;;;;9.50;4.13;;;;;;;;;;6161661;23;20192;-90
2021/06/02 01:55:39;;;;;;;7.17;4.30;;;;;;;;;;6195876;23;20171;-91
2021/06/02 01:59:13;;;;;;;7.60;4.10;;;;;;;;;;6195700;23;20208;-91
2021/06/02 02:02:29;;;;;;;10.63;3.70;;;;;;;;;;6176076;23;20167;-91
2021/06/02 02:05:47;;;;;;;6.43;4.00;;;;;;;;;;6193819;23;20168;-91
2021/06/02 02:09:00;;;;;;;6.43;3.80;;;;;;;;;;6194290;23;20164;-92
2021/06/02 02:12:09;;;;;;;6.87;3.93;;;;;;;;;;6193037;23;20160;-90
2021/06/02 02:15:21;;;;;;;7.80;3.70;;;;;;;;;;6193635;23;20164;-92
2021/06/02 02:18:37;;;;;;;14.23;3.97;;;;;;;;;;6192784;23;20223;-90
2021/06/02 02:21:44;;;;;;;12.50;4.43;;;;;;;;;;6192374;23;20169;-91
2021/06/02 02:24:51;;;;;;;8.33;4.20;;;;;;;;;;6191947;23;20171;-91
2021/06/02 02:28:02;;;;;;;7.67;4.20;;;;;;;;;;6191876;23;20272;-92
2021/06/02 02:31:11;;;;;;;7.83;3.60;;;;;;;;;;6176148;23;20288;-91
2021/06/02 02:34:31;;;;;;;8.93;4.57;;;;;;;;;;6193324;23;20171;-90
2021/06/02 02:37:40;;;;;;;10.77;4.70;;;;;;;;;;6193697;23;20607;-92
2021/06/02 02:40:50;;;;;;;8.67;4.47;;;;;;;;;;6193425;23;20172;-89
2021/06/02 02:44:00;;;;;;;7.83;4.13;;;;;;;;;;6194723;23;20207;-91
2021/06/02 02:47:11;;;;;;;9.90;3.93;;;;;;;;;;6201498;23;20251;-91
2021/06/02 02:50:21;;;;;;;11.47;4.40;;;;;;;;;;6193967;23;20177;-90
2021/06/02 02:53:31;;;;;;;8.40;4.07;;;;;;;;;;6193036;23;20175;-90
2021/06/02 02:56:40;;;;;;;11.27;3.90;;;;;;;;;;6192281;23;20302;-90
2021/06/02 02:59:48;;;;;;;7.23;4.43;;;;;;;;;;6194359;23;20160;-89
2021/06/02 03:02:58;;;;;;;8.13;4.20;;;;;;;;;;6193053;23;20199;-90
2021/06/02 03:06:08;;;;;;;8.77;4.17;;;;;;;;;;6192409;23;20236;-89
2021/06/02 03:09:16;;;;;;;8.47;3.80;;;;;;;;;;6193556;23;20167;-92
2021/06/02 03:12:25;;;;;;;12.73;4.27;;;;;;;;;;6192476;23;20175;-91
2021/06/02 03:15:40;;;;;;;7.53;3.87;;;;;;;;;;6192924;23;20180;-91
2021/06/02 03:18:48;;;;;;;16.33;4.30;;;;;;;;;;6193921;23;20538;-92
2021/06/02 03:21:59;;;;;;;10.73;4.27;;;;;;;;;;6191024;23;20171;-89
2021/06/02 03:25:13;;;;;;;9.20;4.13;;;;;;;;;;6191676;23;20168;-90
2021/06/02 03:28:23;;;;;;;8.27;3.73;;;;;;;;;;6192340;23;20272;-91
2021/06/02 03:31:32;;;;;;;7.70;4.60;;;;;;;;;;6193125;23;20252;-92
2021/06/02 03:34:47;;;;;;;6.27;3.80;;;;;;;;;;6192754;23;20171;-89
2021/06/02 03:37:56;;;;;;;9.17;3.70;;;;;;;;;;6194668;23;20168;-92
2021/06/02 03:41:04;;;;;;;13.30;4.70;;;;;;;;;;6195008;23;20223;-91
2021/06/02 03:44:18;;;;;;;7.43;3.83;;;;;;;;;;6194714;23;20215;-90
2021/06/02 03:47:23;;;;;;;10.67;4.33;;;;;;;;;;6194640;23;20211;-91
2021/06/02 03:50:31;;;;;;;10.77;4.30;;;;;;;;;;6195450;23;20170;-91
2021/06/02 03:53:48;;;;;;;11.97;3.80;;;;;;;;;;6194834;23;20175;-91
2021/06/02 03:57:12;;;;;;;11.93;4.30;;;;;;;;;;6194109;23;20183;-90
2021/06/02 04:00:20;;;;;;;14.93;4.50;;;;;;;;;;6194688;23;20215;-91
2021/06/02 04:03:26;;;;;;;15.07;3.73;;;;;;;;;;6195156;23;20168;-90
2021/06/02 04:06:37;;;;;;;9.17;3.47;;;;;;;;;;6196741;23;20187;-89
2021/06/02 04:09:43;;;;;;;6.70;3.83;;;;;;;;;;6194468;23;20211;-89
2021/06/02 04:12:51;;;;;;;10.33;3.63;;;;;;;;;;6196027;23;20168;-91
2021/06/02 04:16:01;;;;;;;11.77;3.90;;;;;;;;;;6195379;23;20200;-91
2021/06/02 04:19:07;;;;;;;9.37;4.20;;;;;;;;;;6195583;23;20278;-90
2021/06/02 04:22:13;;;;;;;8.37;3.77;;;;;;;;;;6194666;23;20288;-89
2021/06/02 04:25:18;;;;;;;7.83;4.00;;;;;;;;;;6212071;23;20168;-91
2021/06/02 04:28:26;;;;;;;6.13;3.73;;;;;;;;;;6213314;23;20207;-91
2021/06/02 04:31:31;;;;;;;9.47;3.50;;;;;;;;;;6195049;23;20614;-91
2021/06/02 04:34:36;;;;;;;7.40;3.63;;;;;;;;;;6195302;23;20163;-90
2021/06/02 04:37:42;;;;;;;7.95;3.75;;;;;;;;;;6196800;23;20167;-92
2021/06/02 04:40:55;;;;;;;12.90;3.65;;;;;;;;;;6195790;23;20196;-91
2021/06/02 04:44:00;;;;;;;9.30;3.88;;;;;;;;;;6194261;23;20221;-91
2021/06/02 04:47:05;;;;;;;8.65;3.75;;;;;;;;;;6194427;23;20206;-91
2021/06/02 04:50:14;;;;;;;7.50;3.85;;;;;;;;;;6194752;23;20270;-91
2021/06/02 04:53:38;;;;;;;7.28;4.15;;;;;;;;;;6195152;23;20172;-90
2021/06/02 04:57:01;;;;;;;10.90;4.10;;;;;;;;;;6194954;23;20620;-89
2021/06/02 05:00:17;;;;;;;6.60;4.35;;;;;;;;;;6194218;23;20195;-91
2021/06/02 05:03:47;;;;;;;11.73;4.22;;;;;;;;;;6195494;23;20228;-91
2021/06/02 05:07:09;;;;;;;9.55;3.78;;;;;;;;;;6196802;23;20167;-89
2021/06/02 05:10:29;;;;;;;8.80;3.85;;;;;;;;;;6167324;23;20191;-90
2021/06/02 05:13:58;;;;;;;10.07;4.13;;;;;;;;;;6163318;23;20187;-92
2021/06/02 05:17:22;;;;;;;8.00;4.07;;;;;;;;;;6196968;23;20219;-90
2021/06/02 05:24:37;;;;;;;6.63;4.18;;;;;;;;;;6103064;23;20199;-91
2021/06/02 05:28:01;;;;;;;9.70;4.28;;;;;;;;;;6198018;23;20334;-89
2021/06/02 05:31:24;;;;;;;11.35;4.00;;;;;;;;;;6199801;23;20184;-89
2021/06/02 05:34:53;;;;;;;13.77;4.50;;;;;;;;;;6196533;23;20292;-91
2021/06/02 05:38:18;;;;;;;13.52;5.10;;;;;;;;;;6197902;23;20171;-88
2021/06/02 05:41:38;;;;;;;12.02;4.43;;;;;;;;;;6195081;23;20164;-90
2021/06/02 05:45:01;;;;;;;10.00;3.92;;;;;;;;;;6195286;23;20192;-88
2021/06/02 05:48:36;;;;;;;13.52;4.50;;;;;;;;;;6196912;23;20191;-90
2021/06/02 05:51:51;;;;;;;10.18;4.10;;;;;;;;;;6197147;23;20782;-88
2021/06/02 05:55:02;;;;;;;8.07;4.20;;;;;;;;;;6198157;23;20619;-91
2021/06/02 05:58:41;;;;;;;7.32;3.90;;;;;;;;;;6198489;23;20204;-90
2021/06/02 06:01:59;;;;;;;8.98;4.03;;;;;;;;;;6216086;23;20207;-90
2021/06/02 06:05:15;;;;;;;12.82;4.00;;;;;;;;;;6196678;23;20171;-89
2021/06/02 06:12:32;;;;;;;8.18;3.72;;;;;;;;;;6214972;23;20176;-91
2021/06/02 06:15:58;;;;;;;10.57;4.68;;;;;;;;;;6196712;23;20227;-91
2021/06/02 06:19:20;;;;;;;11.80;4.15;;;;;;;;;;6212564;23;20248;-92
2021/06/02 06:22:35;;;;;;;5.75;3.63;;;;;;;;;;6199963;23;20216;-89
2021/06/02 06:25:44;;;;;;;6.22;3.22;;;;;;;;;;6199511;23;20163;-91
2021/06/02 06:28:52;;;;;;;7.63;3.53;;;;;;;;;;6198180;23;20200;-91
2021/06/02 06:32:00;;;;;;;13.00;3.88;;;;;;;;;;6196480;23;20219;-91
2021/06/02 06:35:08;;;;;;;7.13;3.30;;;;;;;;;;6196183;23;20175;-90
2021/06/02 06:38:16;;;;;;;11.93;3.60;;;;;;;;;;6195349;23;20192;-92
2021/06/02 06:41:22;;;;;;;7.25;3.80;;;;;;;;;;6196579;23;20185;-90
2021/06/02 06:44:27;;;;;;;10.15;3.47;;;;;;;;;;6196079;23;20227;-89
2021/06/02 06:47:33;;;;;;;5.80;3.10;;;;;;;;;;6194672;23;20270;-88
2021/06/02 06:50:38;;;;;;;10.25;3.13;;;;;;;;;;6195762;23;20172;-91
2021/06/02 06:53:43;;;;;;;8.82;3.13;;;;;;;;;;6195950;23;20203;-90
2021/06/02 06:56:50;;;;;;;7.10;3.38;;;;;;;;;;6195042;23;20180;-91
2021/06/02 06:59:55;;;;;;;10.23;3.22;;;;;;;;;;6195779;23;20171;-92
2021/06/02 07:03:00;;;;;;;7.60;3.15;;;;;;;;;;6196435;23;20183;-91
2021/06/02 07:06:05;;;;;;;5.18;2.72;;;;;;;;;;6196961;23;20171;-90
2021/06/02 07:09:10;;;;;;;6.07;2.67;;;;;;;;;;6195511;23;20873;-91
2021/06/02 07:12:17;;;;;;;7.55;2.70;;;;;;;;;;6196350;23;20164;-90
2021/06/02 07:15:22;;;;;;;6.05;2.67;;;;;;;;;;6194785;23;20456;-91
2021/06/02 07:18:28;;;;;;;5.78;2.35;;;;;;;;;;6193977;23;20435;-91
2021/06/02 07:21:34;;;;;;;3.47;2.13;;;;;;;;;;6195217;23;20215;-91
2021/06/02 07:24:39;;;;;;;2.63;1.80;;;;;;;;;;6197580;23;20176;-89
2021/06/02 07:27:46;;;;;;;4.22;1.95;;;;;;;;;;6193071;23;20257;-89
2021/06/02 07:30:51;;;;;;;2.47;1.30;;;;;;;;;;6195687;23;20220;-92
2021/06/02 11:14:24;;;;;;;5.32;1.60;;;;;;;;;;6067841;23;20186;-90
2021/06/02 11:17:29;;;;;;;3.28;1.55;;;;;;;;;;6065717;23;20644;-91
2021/06/02 15:29:56;;;;;;;4.55;1.40;;;;;;;;;;6173110;23;20257;-90
2021/06/02 15:33:01;;;;;;;7.63;1.27;;;;;;;;;;6197862;23;20192;-89
2021/06/02 15:36:07;;;;;;;1.80;1.17;;;;;;;;;;6196618;23;20183;-88
2021/06/02 15:39:12;;;;;;;3.53;1.30;;;;;;;;;;6180410;23;20264;-88
2021/06/02 15:42:17;;;;;;;3.95;1.30;;;;;;;;;;6177813;23;20188;-89
2021/06/02 15:45:24;;;;;;;1.58;1.27;;;;;;;;;;6179422;23;20195;-89
2021/06/02 15:48:29;;;;;;;4.65;1.20;;;;;;;;;;6197631;23;20191;-91
2021/06/02 15:51:36;;;;;;;8.68;5.93;;;;;;;;;;6198560;23;20191;-90
2021/06/02 15:54:46;;;;;;;2.42;1.50;;;;;;;;;;6197996;23;20243;-90
2021/06/02 15:57:54;;;;;;;2.92;1.40;;;;;;;;;;6196194;23;20531;-91
2021/06/02 16:01:03;;;;;;;1.83;1.33;;;;;;;;;;6195334;23;20172;-90
2021/06/02 16:04:08;;;;;;;4.22;1.20;;;;;;;;;;6197354;23;20199;-92
2021/06/02 16:07:13;;;;;;;3.53;1.30;;;;;;;;;;6196436;23;20248;-89
2021/06/02 16:10:18;;;;;;;2.53;1.38;;;;;;;;;;6199032;23;20179;-91
2021/06/02 16:13:23;;;;;;;2.95;1.30;;;;;;;;;;6198940;23;20219;-91
2021/06/02 16:16:31;;;;;;;2.67;1.20;;;;;;;;;;6178467;23;20208;-92
2021/06/02 16:19:35;;;;;;;3.63;1.48;;;;;;;;;;6196877;23;20152;-91
2021/06/02 16:22:40;;;;;;;3.75;1.83;;;;;;;;;;6196921;23;20235;-90
2021/06/02 16:25:47;;;;;;;5.05;1.80;;;;;;;;;;6180945;23;20168;-90
2021/06/02 16:28:52;;;;;;;3.13;1.40;;;;;;;;;;6197934;23;20214;-90
2021/06/02 16:31:58;;;;;;;3.90;1.35;;;;;;;;;;6198571;23;20188;-91
2021/06/02 16:35:04;;;;;;;6.38;1.60;;;;;;;;;;6198173;23;20183;-90
2021/06/02 16:38:09;;;;;;;3.00;1.52;;;;;;;;;;6198367;23;20168;-92
2021/06/02 16:41:14;;;;;;;3.78;2.00;;;;;;;;;;6195372;23;20152;-90
2021/06/02 16:44:19;;;;;;;3.05;1.58;;;;;;;;;;6199379;23;20214;-91
2021/06/02 16:47:26;;;;;;;6.95;1.80;;;;;;;;;;6197134;23;20221;-90
2021/06/02 16:50:31;;;;;;;5.10;1.55;;;;;;;;;;6198464;23;20168;-92
2021/06/02 16:53:36;;;;;;;5.60;1.42;;;;;;;;;;6198047;23;20176;-92
2021/06/02 16:56:43;;;;;;;4.30;1.80;;;;;;;;;;6199266;23;20172;-91
2021/06/02 16:59:49;;;;;;;5.22;1.70;;;;;;;;;;6199794;23;20160;-91
2021/06/02 17:02:56;;;;;;;3.63;1.95;;;;;;;;;;6201359;23;20219;-92
2021/06/02 17:06:04;;;;;;;8.18;2.13;;;;;;;;;;6199964;23;20240;-90
2021/06/02 17:09:10;;;;;;;2.67;1.80;;;;;;;;;;6201004;23;20219;-90
2021/06/02 17:12:15;;;;;;;4.00;1.67;;;;;;;;;;6199652;23;20616;-90
2021/06/02 17:15:46;;;;;;;6.55;2.00;;;;;;;;;;6199034;23;20171;-90
2021/06/02 17:18:55;;;;;;;5.88;2.20;;;;;;;;;;6181800;23;20164;-91
2021/06/02 17:22:01;;;;;;;9.48;2.10;;;;;;;;;;6199387;23;20287;-92
2021/06/02 17:25:06;;;;;;;8.65;3.65;;;;;;;;;;6199362;23;20246;-91
2021/06/02 17:28:11;;;;;;;5.38;1.75;;;;;;;;;;6197786;23;20196;-90
2021/06/02 17:31:19;;;;;;;7.15;2.25;;;;;;;;;;6199109;23;20726;-89
2021/06/02 17:34:26;;;;;;;7.28;1.80;;;;;;;;;;6197531;23;20168;-89
2021/06/02 17:37:32;;;;;;;7.13;1.92;;;;;;;;;;6197400;23;20196;-89
2021/06/02 17:40:39;;;;;;;6.43;2.00;;;;;;;;;;6199134;23;20175;-91
2021/06/02 17:43:46;;;;;;;6.75;1.88;;;;;;;;;;6198750;23;20511;-90
2021/06/02 17:46:52;;;;;;;7.85;1.80;;;;;;;;;;6200198;23;20231;-90
2021/06/02 17:49:58;;;;;;;3.72;1.70;;;;;;;;;;6198625;23;20786;-90
2021/06/02 17:53:05;;;;;;;2.83;1.80;;;;;;;;;;6197842;23;20171;-90
2021/06/02 17:56:10;;;;;;;8.80;2.15;;;;;;;;;;6198095;23;20203;-92
2021/06/02 17:59:15;;;;;;;6.18;2.00;;;;;;;;;;6197866;23;20168;-91
2021/06/02 18:02:20;;;;;;;7.47;2.17;;;;;;;;;;6196965;23;20479;-90
2021/06/02 18:05:26;;;;;;;5.93;2.25;;;;;;;;;;6182325;23;20204;-91
2021/06/02 18:08:30;;;;;;;8.38;2.10;;;;;;;;;;6180125;23;20195;-90
2021/06/02 18:11:36;;;;;;;6.35;1.70;;;;;;;;;;6198012;23;20171;-91
2021/06/02 18:14:40;;;;;;;6.57;1.85;;;;;;;;;;6196560;23;20175;-91
2021/06/02 18:17:46;;;;;;;5.40;2.25;;;;;;;;;;6194893;23;20690;-90
2021/06/02 18:20:52;;;;;;;6.97;2.17;;;;;;;;;;6195993;23;20523;-92
2021/06/02 18:23:57;;;;;;;5.45;2.35;;;;;;;;;;6197968;23;20225;-91
2021/06/02 18:27:03;;;;;;;4.63;2.20;;;;;;;;;;6203464;23;20215;-91
2021/06/02 18:30:09;;;;;;;5.70;2.00;;;;;;;;;;6217091;23;20602;-90
2021/06/02 18:33:14;;;;;;;7.95;2.60;;;;;;;;;;6210012;23;20249;-90
2021/06/02 18:36:20;;;;;;;10.50;2.33;;;;;;;;;;6210812;23;20236;-92
2021/06/02 18:39:24;;;;;;;6.07;2.25;;;;;;;;;;6211335;23;20219;-91
2021/06/02 18:42:30;;;;;;;6.10;2.28;;;;;;;;;;6211495;23;20170;-90
2021/06/02 18:45:34;;;;;;;7.18;2.08;;;;;;;;;;6209812;23;20167;-90
2021/06/02 18:48:40;;;;;;;9.05;2.80;;;;;;;;;;6210073;23;20190;-91
2021/06/02 18:51:47;;;;;;;8.25;2.50;;;;;;;;;;6210048;23;20179;-90
2021/06/02 18:54:52;;;;;;;10.63;2.05;;;;;;;;;;6210602;23;20639;-92
2021/06/02 18:57:57;;;;;;;6.75;2.53;;;;;;;;;;6211941;23;20183;-91
2021/06/02 19:01:01;;;;;;;5.50;2.40;;;;;;;;;;6212833;23;20171;-91
2021/06/02 19:04:06;;;;;;;7.47;2.80;;;;;;;;;;6211516;23;20207;-90
2021/06/02 19:07:14;;;;;;;4.35;2.50;;;;;;;;;;6210354;23;20171;-90
2021/06/02 19:10:19;;;;;;;8.48;2.50;;;;;;;;;;6210202;23;20152;-90
2021/06/02 19:13:24;;;;;;;6.03;2.67;;;;;;;;;;6209007;23;20195;-89
2021/06/02 19:16:29;;;;;;;8.30;2.85;;;;;;;;;;6210132;23;20178;-89
2021/06/02 19:19:33;;;;;;;5.75;3.25;;;;;;;;;;6211062;23;20175;-90
2021/06/02 19:22:42;;;;;;;8.57;4.70;;;;;;;;;;6212276;23;20173;-89
2021/06/02 19:25:46;;;;;;;9.10;4.38;;;;;;;;;;6214606;23;20654;-91
2021/06/02 19:28:50;;;;;;;7.32;3.80;;;;;;;;;;6214545;23;20186;-90
2021/06/02 19:31:55;;;;;;;9.68;4.32;;;;;;;;;;6194222;23;20174;-90
2021/06/02 19:35:00;;;;;;;10.80;4.97;;;;;;;;;;6212025;23;20203;-90
2021/06/02 19:38:09;;;;;;;11.40;3.33;;;;;;;;;;6212632;23;20170;-90
2021/06/02 19:41:14;;;;;;;6.65;2.95;;;;;;;;;;6211092;23;20171;-89
2021/06/02 19:44:19;;;;;;;8.27;3.22;;;;;;;;;;6212454;23;20208;-90
2021/06/02 19:47:24;;;;;;;5.65;3.47;;;;;;;;;;6211567;23;20170;-90
2021/06/02 19:50:29;;;;;;;8.20;4.35;;;;;;;;;;6210382;23;20241;-89
2021/06/02 19:53:35;;;;;;;19.60;7.70;;;;;;;;;;6208159;23;20186;-90
2021/06/02 19:56:40;;;;;;;12.05;3.42;;;;;;;;;;6211159;23;20167;-91
2021/06/02 19:59:45;;;;;;;8.60;3.45;;;;;;;;;;6212552;23;20504;-90
2021/06/02 20:02:50;;;;;;;17.80;6.38;;;;;;;;;;6209598;23;20203;-90
2021/06/02 20:05:55;;;;;;;15.05;4.50;;;;;;;;;;6209049;23;20219;-89
2021/06/02 20:09:01;;;;;;;12.15;3.67;;;;;;;;;;6210984;23;20171;-92
2021/06/02 20:12:06;;;;;;;13.23;4.45;;;;;;;;;;6210148;23;20194;-91
2021/06/02 20:15:11;;;;;;;7.78;4.57;;;;;;;;;;6210527;23;20172;-92
2021/06/02 20:18:16;;;;;;;17.55;7.95;;;;;;;;;;6212344;23;20308;-91
2021/06/02 20:21:21;;;;;;;16.60;6.50;;;;;;;;;;6211509;23;20211;-90
2021/06/02 20:24:27;;;;;;;15.52;6.47;;;;;;;;;;6212258;23;20179;-90
2021/06/02 20:27:31;;;;;;;11.93;5.95;;;;;;;;;;6200238;23;20209;-91
2021/06/02 20:34:00;;;;;;;8.98;4.40;;;;;;;;;;6200055;23;20228;-91
2021/06/02 20:37:05;;;;;;;9.07;4.47;;;;;;;;;;6200364;23;20196;-91
2021/06/02 20:40:13;;;;;;;8.88;3.85;;;;;;;;;;6199713;23;20164;-91
2021/06/02 20:43:17;;;;;;;7.32;3.83;;;;;;;;;;6196056;23;20172;-91
2021/06/02 20:46:22;;;;;;;13.77;4.45;;;;;;;;;;6195684;23;20237;-90
2021/06/02 20:49:28;;;;;;;9.55;3.80;;;;;;;;;;6194873;23;20199;-90
2021/06/02 20:52:34;;;;;;;11.70;4.72;;;;;;;;;;6194119;23;20188;-90
2021/06/02 20:56:03;;;;;;;10.07;4.35;;;;;;;;;;6193389;23;20175;-90
2021/06/02 20:59:09;;;;;;;7.55;3.90;;;;;;;;;;6193751;23;20196;-90
2021/06/02 21:02:14;;;;;;;10.68;4.55;;;;;;;;;;6192618;23;20176;-89
2021/06/02 21:05:19;;;;;;;9.07;4.60;;;;;;;;;;6193854;23;20176;-89
2021/06/02 21:08:23;;;;;;;6.68;4.32;;;;;;;;;;6193487;23;20246;-89
2021/06/02 21:11:27;;;;;;;26.17;10.63;;;;;;;;;;6193774;23;20191;-89
2021/06/02 21:14:33;;;;;;;9.75;4.47;;;;;;;;;;6194962;23;20498;-89
2021/06/02 21:17:38;;;;;;;9.68;5.93;;;;;;;;;;6193068;23;20542;-89
2021/06/02 21:20:42;;;;;;;10.68;5.40;;;;;;;;;;6194363;23;20164;-89
2021/06/02 21:23:47;;;;;;;13.38;4.80;;;;;;;;;;6194980;23;20172;-89
2021/06/02 21:26:52;;;;;;;9.93;4.55;;;;;;;;;;6203178;23;20254;-89
2021/06/02 21:29:58;;;;;;;8.20;4.53;;;;;;;;;;6209004;23;20227;-89
2021/06/02 21:33:03;;;;;;;10.88;4.40;;;;;;;;;;6209054;23;20167;-90
2021/06/02 21:36:08;;;;;;;12.90;4.75;;;;;;;;;;6209027;23;20222;-90
2021/06/02 21:39:14;;;;;;;9.45;5.07;;;;;;;;;;6206208;23;20506;-90
2021/06/02 21:42:19;;;;;;;12.23;5.00;;;;;;;;;;6208269;23;20170;-89
2021/06/02 21:45:25;;;;;;;10.60;4.70;;;;;;;;;;6206762;23;20631;-90
2021/06/02 21:48:30;;;;;;;10.25;4.55;;;;;;;;;;6208441;23;20194;-90
2021/06/02 21:51:35;;;;;;;11.05;4.35;;;;;;;;;;6208096;23;20501;-89
2021/06/02 21:54:39;;;;;;;9.68;5.00;;;;;;;;;;6208464;23;20186;-90
2021/06/02 21:57:44;;;;;;;30.13;15.23;;;;;;;;;;6208784;23;20500;-89
2021/06/02 22:00:51;;;;;;;16.65;6.82;;;;;;;;;;6208722;23;20218;-89
2021/06/02 22:04:00;;;;;;;11.75;5.07;;;;;;;;;;6207591;23;20199;-89
2021/06/02 22:07:05;;;;;;;12.82;4.22;;;;;;;;;;6224727;23;20407;-90
2021/06/02 22:10:11;;;;;;;9.30;4.30;;;;;;;;;;6207763;23;20178;-90
2021/06/02 22:13:16;;;;;;;15.52;5.00;;;;;;;;;;6206633;23;20171;-90
2021/06/02 22:16:22;;;;;;;10.88;4.70;;;;;;;;;;6207934;23;20171;-89
2021/06/02 22:19:27;;;;;;;10.98;4.90;;;;;;;;;;6207653;23;20263;-90
2021/06/02 22:22:32;;;;;;;12.27;5.63;;;;;;;;;;6206502;23;20236;-90
2021/06/02 22:25:37;;;;;;;9.30;5.20;;;;;;;;;;6206569;23;20220;-90
2021/06/02 22:28:41;;;;;;;10.18;4.60;;;;;;;;;;6205658;23;20746;-90
2021/06/02 22:31:47;;;;;;;12.02;5.10;;;;;;;;;;6205633;23;20194;-91
2021/06/02 22:34:52;;;;;;;12.02;4.95;;;;;;;;;;6206586;23;20171;-90
2021/06/02 22:37:56;;;;;;;11.00;5.25;;;;;;;;;;6207159;23;20187;-90
2021/06/02 22:41:04;;;;;;;10.65;5.32;;;;;;;;;;6205645;23;20649;-90
2021/06/02 22:44:08;;;;;;;12.07;4.72;;;;;;;;;;6206788;23;20187;-90
2021/06/02 22:47:14;;;;;;;10.20;5.25;;;;;;;;;;6205524;23;20244;-90
2021/06/02 22:50:21;;;;;;;9.43;4.80;;;;;;;;;;6205159;23;20195;-89
2021/06/02 22:53:26;;;;;;;8.77;4.93;;;;;;;;;;6205961;23;20171;-90
2021/06/02 22:56:30;;;;;;;8.88;4.85;;;;;;;;;;6206812;23;20171;-90
2021/06/02 22:59:34;;;;;;;10.95;5.18;;;;;;;;;;6207663;23;20186;-89
2021/06/02 23:02:40;;;;;;;12.52;4.80;;;;;;;;;;6208285;23;20665;-90
2021/06/02 23:05:47;;;;;;;10.80;4.93;;;;;;;;;;6207357;23;20171;-89
2021/06/02 23:08:51;;;;;;;10.93;4.82;;;;;;;;;;6208269;23;20238;-88
2021/06/02 23:11:56;;;;;;;14.93;5.15;;;;;;;;;;6207664;23;20174;-90
2021/06/02 23:15:02;;;;;;;20.42;6.57;;;;;;;;;;6206566;23;20179;-89
2021/06/02 23:18:08;;;;;;;11.48;5.65;;;;;;;;;;6206332;23;20171;-90
2021/06/02 23:21:13;;;;;;;8.32;5.70;;;;;;;;;;6206245;23;20187;-89
2021/06/02 23:24:18;;;;;;;14.85;5.57;;;;;;;;;;6205650;23;20172;-88
2021/06/02 23:27:22;;;;;;;9.02;5.70;;;;;;;;;;6192831;23;20191;-89
2021/06/02 23:30:27;;;;;;;11.13;6.03;;;;;;;;;;6193376;23;20202;-89
2021/06/02 23:33:35;;;;;;;9.15;5.22;;;;;;;;;;6194010;23;20195;-90
2021/06/02 23:36:41;;;;;;;12.85;5.60;;;;;;;;;;6195190;23;20167;-88
2021/06/02 23:39:45;;;;;;;10.70;5.50;;;;;;;;;;6194224;23;20172;-90
2021/06/02 23:42:49;;;;;;;13.40;5.50;;;;;;;;;;6194534;23;20196;-89
2021/06/02 23:45:54;;;;;;;7.90;4.25;;;;;;;;;;6194776;23;20550;-89
2021/06/02 23:49:00;;;;;;;9.77;4.03;;;;;;;;;;6175030;23;20208;-88
2021/06/02 23:52:04;;;;;;;15.30;4.93;;;;;;;;;;6192510;23;20172;-88
2021/06/02 23:55:11;;;;;;;11.23;4.80;;;;;;;;;;6194373;23;20171;-89
2021/06/02 23:58:17;;;;;;;7.25;4.63;;;;;;;;;;6195637;23;20171;-89
